Terminal Aerodrome Forecast
Issued by NWS Jackson, MS

Home | Current Version | Previous Version | Text Only | Print | Product List | Glossary On
Versions: 1 2 3 4 5 6 7 8 9 10 11 12 13 14 15 16 17 18 19 20 21 22 23 24 25
000
FTUS44 KMEG 281133 CCA
TAFTUP
TAF COR
KTUP 281133Z 2812/2912 00000KT 6SM BR SCT003 OVC015
      TEMPO 2812/2814 1SM BR BKN003
     FM281700 15005KT P6SM OVC025
     FM282000 17005KT P6SM VCTS SCT035CB
     FM290000 16003KT P6SM OVC030
     FM290800 18004KT 4SM BR OVC008=

USA.gov is the U.S. government's official web portal to all federal, state and local government web resources and services.